sensor_id;sensor_type;location;lat;lon;timestamp;P1;durP1;ratioP1;P2;durP2;ratioP2
20511;SDS011;10414;52.074;5.126;2023-09-19T00:00:35;8.87;;;1.97;;
20511;SDS011;10414;52.074;5.126;2023-09-19T00:03:01;10.32;;;1.92;;
20511;SDS011;10414;52.074;5.126;2023-09-19T00:05:30;7.60;;;1.80;;
20511;SDS011;10414;52.074;5.126;2023-09-19T00:08:03;8.02;;;1.65;;
20511;SDS011;10414;52.074;5.126;2023-09-19T00:10:31;7.03;;;1.70;;
20511;SDS011;10414;52.074;5.126;2023-09-19T00:13:00;7.25;;;1.60;;
20511;SDS011;10414;52.074;5.126;2023-09-19T00:15:30;11.82;;;2.00;;
20511;SDS011;10414;52.074;5.126;2023-09-19T00:21:26;8.32;;;1.70;;
20511;SDS011;10414;52.074;5.126;2023-09-19T00:23:58;7.88;;;1.70;;
20511;SDS011;10414;52.074;5.126;2023-09-19T00:26:29;7.93;;;1.80;;
20511;SDS011;10414;52.074;5.126;2023-09-19T00:28:59;13.65;;;1.75;;
20511;SDS011;10414;52.074;5.126;2023-09-19T00:33:56;7.57;;;1.63;;
20511;SDS011;10414;52.074;5.126;2023-09-19T00:36:29;8.60;;;1.50;;
20511;SDS011;10414;52.074;5.126;2023-09-19T00:38:56;4.70;;;1.40;;
20511;SDS011;10414;52.074;5.126;2023-09-19T00:41:22;7.95;;;1.50;;
20511;SDS011;10414;52.074;5.126;2023-09-19T00:43:50;8.80;;;1.70;;
20511;SDS011;10414;52.074;5.126;2023-09-19T00:46:16;5.78;;;1.70;;
20511;SDS011;10414;52.074;5.126;2023-09-19T00:48:52;10.93;;;1.60;;
20511;SDS011;10414;52.074;5.126;2023-09-19T00:51:20;7.43;;;1.50;;
20511;SDS011;10414;52.074;5.126;2023-09-19T00:56:18;7.68;;;1.73;;
20511;SDS011;10414;52.074;5.126;2023-09-19T00:58:48;6.22;;;1.33;;
20511;SDS011;10414;52.074;5.126;2023-09-19T01:01:15;4.80;;;1.50;;
20511;SDS011;10414;52.074;5.126;2023-09-19T01:03:44;10.05;;;1.98;;
20511;SDS011;10414;52.074;5.126;2023-09-19T01:06:11;7.18;;;1.58;;
20511;SDS011;10414;52.074;5.126;2023-09-19T01:08:38;6.88;;;1.63;;
20511;SDS011;10414;52.074;5.126;2023-09-19T01:11:09;5.78;;;1.50;;
20511;SDS011;10414;52.074;5.126;2023-09-19T01:13:44;6.00;;;1.40;;
20511;SDS011;10414;52.074;5.126;2023-09-19T01:16:22;6.75;;;1.55;;
20511;SDS011;10414;52.074;5.126;2023-09-19T01:18:58;7.35;;;1.60;;
20511;SDS011;10414;52.074;5.126;2023-09-19T01:21:35;6.88;;;1.60;;
20511;SDS011;10414;52.074;5.126;2023-09-19T01:24:22;6.88;;;1.50;;
20511;SDS011;10414;52.074;5.126;2023-09-19T01:27:30;7.82;;;1.70;;
20511;SDS011;10414;52.074;5.126;2023-09-19T01:30:17;7.93;;;1.50;;
20511;SDS011;10414;52.074;5.126;2023-09-19T01:32:49;8.65;;;1.45;;
20511;SDS011;10414;52.074;5.126;2023-09-19T01:35:17;6.03;;;1.60;;
20511;SDS011;10414;52.074;5.126;2023-09-19T01:37:44;7.00;;;1.48;;
20511;SDS011;10414;52.074;5.126;2023-09-19T01:40:14;6.63;;;1.52;;
20511;SDS011;10414;52.074;5.126;2023-09-19T01:42:45;6.68;;;1.60;;
20511;SDS011;10414;52.074;5.126;2023-09-19T01:45:30;8.80;;;1.75;;
20511;SDS011;10414;52.074;5.126;2023-09-19T01:48:04;8.02;;;1.75;;
20511;SDS011;10414;52.074;5.126;2023-09-19T01:50:44;7.13;;;1.75;;
20511;SDS011;10414;52.074;5.126;2023-09-19T01:53:21;8.23;;;1.70;;
20511;SDS011;10414;52.074;5.126;2023-09-19T01:55:55;11.10;;;1.45;;
20511;SDS011;10414;52.074;5.126;2023-09-19T01:58:26;10.15;;;1.83;;
20511;SDS011;10414;52.074;5.126;2023-09-19T02:00:59;14.02;;;2.15;;
20511;SDS011;10414;52.074;5.126;2023-09-19T02:03:30;8.50;;;1.75;;
20511;SDS011;10414;52.074;5.126;2023-09-19T02:11:06;8.10;;;1.73;;
20511;SDS011;10414;52.074;5.126;2023-09-19T02:13:33;9.00;;;1.80;;
20511;SDS011;10414;52.074;5.126;2023-09-19T02:16:03;7.63;;;1.60;;
20511;SDS011;10414;52.074;5.126;2023-09-19T02:18:33;8.20;;;1.40;;
20511;SDS011;10414;52.074;5.126;2023-09-19T02:21:04;12.02;;;1.80;;
20511;SDS011;10414;52.074;5.126;2023-09-19T02:23:33;8.75;;;1.98;;
20511;SDS011;10414;52.074;5.126;2023-09-19T02:26:00;6.88;;;1.52;;
20511;SDS011;10414;52.074;5.126;2023-09-19T02:28:30;12.27;;;1.88;;
20511;SDS011;10414;52.074;5.126;2023-09-19T02:31:01;10.10;;;1.60;;
20511;SDS011;10414;52.074;5.126;2023-09-19T02:33:34;19.60;;;2.10;;
20511;SDS011;10414;52.074;5.126;2023-09-19T02:36:02;9.20;;;1.90;;
20511;SDS011;10414;52.074;5.126;2023-09-19T02:38:30;9.25;;;1.90;;
20511;SDS011;10414;52.074;5.126;2023-09-19T02:40:57;11.27;;;2.25;;
20511;SDS011;10414;52.074;5.126;2023-09-19T02:43:24;14.70;;;2.60;;
20511;SDS011;10414;52.074;5.126;2023-09-19T02:45:51;11.73;;;1.70;;
20511;SDS011;10414;52.074;5.126;2023-09-19T02:48:23;10.90;;;2.17;;
20511;SDS011;10414;52.074;5.126;2023-09-19T02:50:54;8.40;;;1.70;;
20511;SDS011;10414;52.074;5.126;2023-09-19T02:53:22;13.85;;;1.83;;
20511;SDS011;10414;52.074;5.126;2023-09-19T02:55:54;8.90;;;2.00;;
20511;SDS011;10414;52.074;5.126;2023-09-19T02:58:24;14.48;;;2.50;;
20511;SDS011;10414;52.074;5.126;2023-09-19T03:01:07;8.15;;;1.70;;
20511;SDS011;10414;52.074;5.126;2023-09-19T03:03:36;9.98;;;2.22;;
20511;SDS011;10414;52.074;5.126;2023-09-19T03:06:04;10.30;;;2.42;;
20511;SDS011;10414;52.074;5.126;2023-09-19T03:08:34;10.70;;;2.13;;
20511;SDS011;10414;52.074;5.126;2023-09-19T03:11:03;13.30;;;2.13;;
20511;SDS011;10414;52.074;5.126;2023-09-19T03:13:33;10.20;;;2.10;;
20511;SDS011;10414;52.074;5.126;2023-09-19T03:18:30;6.97;;;1.90;;
20511;SDS011;10414;52.074;5.126;2023-09-19T03:20:58;10.88;;;2.33;;
20511;SDS011;10414;52.074;5.126;2023-09-19T03:23:28;9.10;;;2.05;;
20511;SDS011;10414;52.074;5.126;2023-09-19T03:25:55;11.65;;;2.83;;
20511;SDS011;10414;52.074;5.126;2023-09-19T03:28:26;11.07;;;2.45;;
20511;SDS011;10414;52.074;5.126;2023-09-19T03:33:25;10.40;;;2.10;;
20511;SDS011;10414;52.074;5.126;2023-09-19T03:35:56;11.35;;;1.83;;
20511;SDS011;10414;52.074;5.126;2023-09-19T03:38:25;13.40;;;2.05;;
20511;SDS011;10414;52.074;5.126;2023-09-19T03:40:55;13.98;;;2.45;;
20511;SDS011;10414;52.074;5.126;2023-09-19T03:43:22;9.85;;;1.70;;
20511;SDS011;10414;52.074;5.126;2023-09-19T03:46:01;9.65;;;2.17;;
20511;SDS011;10414;52.074;5.126;2023-09-19T03:48:29;11.02;;;1.95;;
20511;SDS011;10414;52.074;5.126;2023-09-19T03:50:59;8.25;;;2.00;;
20511;SDS011;10414;52.074;5.126;2023-09-19T03:53:27;13.35;;;2.17;;
20511;SDS011;10414;52.074;5.126;2023-09-19T03:55:54;12.35;;;2.10;;
20511;SDS011;10414;52.074;5.126;2023-09-19T03:58:21;14.98;;;2.10;;
20511;SDS011;10414;52.074;5.126;2023-09-19T04:00:47;9.82;;;1.80;;
20511;SDS011;10414;52.074;5.126;2023-09-19T04:03:21;11.57;;;2.13;;
20511;SDS011;10414;52.074;5.126;2023-09-19T04:05:48;8.70;;;1.83;;
20511;SDS011;10414;52.074;5.126;2023-09-19T04:08:24;13.23;;;2.22;;
20511;SDS011;10414;52.074;5.126;2023-09-19T04:10:52;9.30;;;1.65;;
20511;SDS011;10414;52.074;5.126;2023-09-19T04:13:22;11.35;;;2.10;;
20511;SDS011;10414;52.074;5.126;2023-09-19T04:15:52;10.30;;;1.90;;
20511;SDS011;10414;52.074;5.126;2023-09-19T04:18:19;7.53;;;2.03;;
20511;SDS011;10414;52.074;5.126;2023-09-19T04:20:53;8.52;;;2.10;;
20511;SDS011;10414;52.074;5.126;2023-09-19T04:23:22;8.85;;;1.70;;
20511;SDS011;10414;52.074;5.126;2023-09-19T04:25:49;11.02;;;1.85;;
20511;SDS011;10414;52.074;5.126;2023-09-19T04:28:27;5.60;;;1.40;;
20511;SDS011;10414;52.074;5.126;2023-09-19T04:30:56;7.85;;;1.98;;
20511;SDS011;10414;52.074;5.126;2023-09-19T04:33:24;6.90;;;1.92;;
20511;SDS011;10414;52.074;5.126;2023-09-19T04:35:52;8.95;;;2.08;;
20511;SDS011;10414;52.074;5.126;2023-09-19T04:38:19;11.25;;;1.63;;
20511;SDS011;10414;52.074;5.126;2023-09-19T04:40:46;7.03;;;1.67;;
20511;SDS011;10414;52.074;5.126;2023-09-19T04:43:13;9.43;;;1.90;;
20511;SDS011;10414;52.074;5.126;2023-09-19T04:45:42;11.82;;;1.80;;
20511;SDS011;10414;52.074;5.126;2023-09-19T04:48:09;7.80;;;1.75;;
20511;SDS011;10414;52.074;5.126;2023-09-19T04:50:37;11.70;;;1.70;;
20511;SDS011;10414;52.074;5.126;2023-09-19T04:53:06;5.40;;;1.60;;
20511;SDS011;10414;52.074;5.126;2023-09-19T04:55:33;12.48;;;2.00;;
20511;SDS011;10414;52.074;5.126;2023-09-19T04:58:02;10.90;;;2.13;;
20511;SDS011;10414;52.074;5.126;2023-09-19T05:00:29;10.73;;;1.90;;
20511;SDS011;10414;52.074;5.126;2023-09-19T05:03:01;11.77;;;2.20;;
20511;SDS011;10414;52.074;5.126;2023-09-19T05:05:31;11.15;;;2.28;;
20511;SDS011;10414;52.074;5.126;2023-09-19T05:07:58;8.73;;;2.00;;
20511;SDS011;10414;52.074;5.126;2023-09-19T05:10:34;14.20;;;2.05;;
20511;SDS011;10414;52.074;5.126;2023-09-19T05:13:03;13.80;;;2.13;;
20511;SDS011;10414;52.074;5.126;2023-09-19T05:15:29;8.35;;;1.63;;
20511;SDS011;10414;52.074;5.126;2023-09-19T05:17:56;9.73;;;1.90;;
20511;SDS011;10414;52.074;5.126;2023-09-19T05:20:25;11.05;;;2.15;;
20511;SDS011;10414;52.074;5.126;2023-09-19T05:22:58;9.65;;;1.98;;
20511;SDS011;10414;52.074;5.126;2023-09-19T05:25:27;13.18;;;2.35;;
20511;SDS011;10414;52.074;5.126;2023-09-19T05:27:56;12.32;;;2.20;;
20511;SDS011;10414;52.074;5.126;2023-09-19T05:30:24;7.50;;;1.80;;
20511;SDS011;10414;52.074;5.126;2023-09-19T05:32:52;11.50;;;1.92;;
20511;SDS011;10414;52.074;5.126;2023-09-19T05:35:20;9.82;;;2.33;;
20511;SDS011;10414;52.074;5.126;2023-09-19T05:37:49;10.30;;;1.80;;
20511;SDS011;10414;52.074;5.126;2023-09-19T05:40:17;15.23;;;2.63;;
20511;SDS011;10414;52.074;5.126;2023-09-19T05:42:44;14.48;;;2.60;;
20511;SDS011;10414;52.074;5.126;2023-09-19T05:45:11;10.80;;;2.92;;
20511;SDS011;10414;52.074;5.126;2023-09-19T05:47:40;11.38;;;2.22;;
20511;SDS011;10414;52.074;5.126;2023-09-19T05:50:09;12.82;;;2.15;;
20511;SDS011;10414;52.074;5.126;2023-09-19T05:52:36;14.10;;;2.22;;
20511;SDS011;10414;52.074;5.126;2023-09-19T05:55:06;14.75;;;2.50;;
20511;SDS011;10414;52.074;5.126;2023-09-19T05:57:34;9.75;;;1.83;;
20511;SDS011;10414;52.074;5.126;2023-09-19T06:00:01;9.38;;;2.30;;
20511;SDS011;10414;52.074;5.126;2023-09-19T06:02:36;8.75;;;2.10;;
20511;SDS011;10414;52.074;5.126;2023-09-19T06:05:03;13.48;;;2.13;;
20511;SDS011;10414;52.074;5.126;2023-09-19T06:07:31;15.25;;;2.60;;
20511;SDS011;10414;52.074;5.126;2023-09-19T06:10:02;10.40;;;2.30;;
20511;SDS011;10414;52.074;5.126;2023-09-19T06:12:32;9.07;;;1.92;;
20511;SDS011;10414;52.074;5.126;2023-09-19T06:15:02;13.63;;;2.03;;
20511;SDS011;10414;52.074;5.126;2023-09-19T06:17:30;13.90;;;2.28;;
20511;SDS011;10414;52.074;5.126;2023-09-19T06:19:57;10.32;;;1.90;;
20511;SDS011;10414;52.074;5.126;2023-09-19T06:22:25;13.35;;;2.33;;
20511;SDS011;10414;52.074;5.126;2023-09-19T06:24:51;10.82;;;1.88;;
20511;SDS011;10414;52.074;5.126;2023-09-19T06:27:30;11.90;;;2.33;;
20511;SDS011;10414;52.074;5.126;2023-09-19T06:30:06;11.80;;;2.20;;
20511;SDS011;10414;52.074;5.126;2023-09-19T06:32:34;12.52;;;2.72;;
20511;SDS011;10414;52.074;5.126;2023-09-19T06:35:06;13.23;;;2.15;;
20511;SDS011;10414;52.074;5.126;2023-09-19T06:37:36;12.80;;;2.28;;
20511;SDS011;10414;52.074;5.126;2023-09-19T06:40:04;12.25;;;2.38;;
20511;SDS011;10414;52.074;5.126;2023-09-19T06:42:35;11.65;;;1.83;;
20511;SDS011;10414;52.074;5.126;2023-09-19T06:45:03;11.70;;;2.13;;
20511;SDS011;10414;52.074;5.126;2023-09-19T06:47:31;13.10;;;2.10;;
20511;SDS011;10414;52.074;5.126;2023-09-19T06:49:58;12.05;;;2.20;;
20511;SDS011;10414;52.074;5.126;2023-09-19T06:52:27;12.85;;;1.90;;
20511;SDS011;10414;52.074;5.126;2023-09-19T06:54:57;8.80;;;2.33;;
20511;SDS011;10414;52.074;5.126;2023-09-19T06:57:28;9.40;;;2.45;;
20511;SDS011;10414;52.074;5.126;2023-09-19T06:59:57;12.02;;;2.33;;
20511;SDS011;10414;52.074;5.126;2023-09-19T07:02:29;12.23;;;2.13;;
20511;SDS011;10414;52.074;5.126;2023-09-19T07:05:03;8.82;;;2.00;;
20511;SDS011;10414;52.074;5.126;2023-09-19T07:07:32;8.82;;;1.63;;
20511;SDS011;10414;52.074;5.126;2023-09-19T07:10:02;11.65;;;2.10;;
20511;SDS011;10414;52.074;5.126;2023-09-19T07:12:34;12.25;;;2.15;;
20511;SDS011;10414;52.074;5.126;2023-09-19T07:15:09;11.63;;;1.95;;
20511;SDS011;10414;52.074;5.126;2023-09-19T07:17:38;12.73;;;2.25;;
20511;SDS011;10414;52.074;5.126;2023-09-19T07:20:11;8.57;;;2.50;;
20511;SDS011;10414;52.074;5.126;2023-09-19T07:22:44;10.50;;;1.70;;
20511;SDS011;10414;52.074;5.126;2023-09-19T07:25:11;11.52;;;2.20;;
20511;SDS011;10414;52.074;5.126;2023-09-19T07:27:39;13.98;;;2.05;;
20511;SDS011;10414;52.074;5.126;2023-09-19T07:30:19;10.38;;;2.30;;
20511;SDS011;10414;52.074;5.126;2023-09-19T07:32:48;11.32;;;2.00;;
20511;SDS011;10414;52.074;5.126;2023-09-19T07:35:21;11.85;;;2.17;;
20511;SDS011;10414;52.074;5.126;2023-09-19T07:37:50;18.58;;;2.75;;
20511;SDS011;10414;52.074;5.126;2023-09-19T07:40:17;9.98;;;2.05;;
20511;SDS011;10414;52.074;5.126;2023-09-19T07:42:54;14.57;;;2.35;;
20511;SDS011;10414;52.074;5.126;2023-09-19T07:45:30;12.60;;;2.33;;
20511;SDS011;10414;52.074;5.126;2023-09-19T07:48:03;9.93;;;2.40;;
20511;SDS011;10414;52.074;5.126;2023-09-19T07:50:42;11.52;;;2.40;;
20511;SDS011;10414;52.074;5.126;2023-09-19T07:53:13;10.00;;;1.92;;
20511;SDS011;10414;52.074;5.126;2023-09-19T07:55:43;13.18;;;2.00;;
20511;SDS011;10414;52.074;5.126;2023-09-19T07:58:13;11.73;;;2.30;;
20511;SDS011;10414;52.074;5.126;2023-09-19T08:00:45;16.45;;;2.72;;
20511;SDS011;10414;52.074;5.126;2023-09-19T08:03:12;15.57;;;2.30;;
20511;SDS011;10414;52.074;5.126;2023-09-19T08:05:46;12.48;;;2.60;;
20511;SDS011;10414;52.074;5.126;2023-09-19T08:08:15;10.65;;;2.40;;
20511;SDS011;10414;52.074;5.126;2023-09-19T08:10:43;14.77;;;3.05;;
20511;SDS011;10414;52.074;5.126;2023-09-19T08:13:18;13.07;;;2.22;;
20511;SDS011;10414;52.074;5.126;2023-09-19T08:15:48;12.55;;;2.50;;
20511;SDS011;10414;52.074;5.126;2023-09-19T08:18:18;14.98;;;2.47;;
20511;SDS011;10414;52.074;5.126;2023-09-19T08:20:55;11.80;;;2.15;;
20511;SDS011;10414;52.074;5.126;2023-09-19T08:23:23;12.40;;;2.65;;
20511;SDS011;10414;52.074;5.126;2023-09-19T08:25:55;14.10;;;2.50;;
20511;SDS011;10414;52.074;5.126;2023-09-19T08:28:34;12.98;;;2.13;;
20511;SDS011;10414;52.074;5.126;2023-09-19T08:31:07;14.90;;;2.40;;
20511;SDS011;10414;52.074;5.126;2023-09-19T08:33:35;11.07;;;2.40;;
20511;SDS011;10414;52.074;5.126;2023-09-19T08:36:05;12.23;;;2.33;;
20511;SDS011;10414;52.074;5.126;2023-09-19T08:38:35;14.50;;;2.45;;
20511;SDS011;10414;52.074;5.126;2023-09-19T08:41:05;12.65;;;2.35;;
20511;SDS011;10414;52.074;5.126;2023-09-19T08:43:33;10.63;;;2.70;;
20511;SDS011;10414;52.074;5.126;2023-09-19T08:46:06;12.20;;;2.40;;
20511;SDS011;10414;52.074;5.126;2023-09-19T08:48:39;14.65;;;2.50;;
20511;SDS011;10414;52.074;5.126;2023-09-19T08:51:18;11.23;;;2.35;;
20511;SDS011;10414;52.074;5.126;2023-09-19T08:53:58;13.95;;;2.63;;
20511;SDS011;10414;52.074;5.126;2023-09-19T08:56:30;12.80;;;2.28;;
20511;SDS011;10414;52.074;5.126;2023-09-19T08:59:02;15.38;;;2.30;;
20511;SDS011;10414;52.074;5.126;2023-09-19T09:01:35;11.02;;;2.30;;
20511;SDS011;10414;52.074;5.126;2023-09-19T09:04:07;11.88;;;2.42;;
20511;SDS011;10414;52.074;5.126;2023-09-19T09:06:51;7.95;;;2.13;;
20511;SDS011;10414;52.074;5.126;2023-09-19T09:09:20;9.38;;;2.30;;
20511;SDS011;10414;52.074;5.126;2023-09-19T09:11:49;9.25;;;2.10;;
20511;SDS011;10414;52.074;5.126;2023-09-19T09:14:18;10.25;;;2.00;;
20511;SDS011;10414;52.074;5.126;2023-09-19T09:16:59;10.25;;;2.13;;
20511;SDS011;10414;52.074;5.126;2023-09-19T09:19:30;8.93;;;2.00;;
20511;SDS011;10414;52.074;5.126;2023-09-19T09:22:11;13.32;;;2.17;;
20511;SDS011;10414;52.074;5.126;2023-09-19T09:24:52;16.52;;;2.45;;
20511;SDS011;10414;52.074;5.126;2023-09-19T09:27:23;10.85;;;2.45;;
20511;SDS011;10414;52.074;5.126;2023-09-19T09:29:51;10.95;;;2.53;;
20511;SDS011;10414;52.074;5.126;2023-09-19T09:32:22;14.70;;;2.50;;
20511;SDS011;10414;52.074;5.126;2023-09-19T09:35:01;9.45;;;2.05;;
20511;SDS011;10414;52.074;5.126;2023-09-19T09:37:36;9.40;;;2.15;;
20511;SDS011;10414;52.074;5.126;2023-09-19T09:40:08;9.45;;;2.03;;
20511;SDS011;10414;52.074;5.126;2023-09-19T09:43:01;13.20;;;2.22;;
20511;SDS011;10414;52.074;5.126;2023-09-19T09:45:39;9.32;;;2.35;;
20511;SDS011;10414;52.074;5.126;2023-09-19T09:48:25;13.82;;;2.80;;
20511;SDS011;10414;52.074;5.126;2023-09-19T09:50:57;14.52;;;2.47;;
20511;SDS011;10414;52.074;5.126;2023-09-19T09:53:28;11.68;;;2.90;;
20511;SDS011;10414;52.074;5.126;2023-09-19T09:55:57;12.98;;;2.10;;
20511;SDS011;10414;52.074;5.126;2023-09-19T09:58:35;12.40;;;2.22;;
20511;SDS011;10414;52.074;5.126;2023-09-19T10:01:11;12.55;;;2.28;;
20511;SDS011;10414;52.074;5.126;2023-09-19T10:03:49;9.27;;;1.80;;
20511;SDS011;10414;52.074;5.126;2023-09-19T10:06:20;10.68;;;2.58;;
20511;SDS011;10414;52.074;5.126;2023-09-19T10:08:59;12.18;;;2.42;;
20511;SDS011;10414;52.074;5.126;2023-09-19T10:11:38;11.43;;;2.03;;
20511;SDS011;10414;52.074;5.126;2023-09-19T10:14:09;8.60;;;1.98;;
20511;SDS011;10414;52.074;5.126;2023-09-19T10:16:41;6.68;;;1.80;;
20511;SDS011;10414;52.074;5.126;2023-09-19T10:19:16;7.72;;;1.98;;
20511;SDS011;10414;52.074;5.126;2023-09-19T10:21:53;11.20;;;2.20;;
20511;SDS011;10414;52.074;5.126;2023-09-19T10:24:24;10.00;;;1.75;;
20511;SDS011;10414;52.074;5.126;2023-09-19T10:26:59;9.88;;;2.08;;
20511;SDS011;10414;52.074;5.126;2023-09-19T10:29:32;12.20;;;2.42;;
20511;SDS011;10414;52.074;5.126;2023-09-19T10:32:04;10.65;;;1.95;;
20511;SDS011;10414;52.074;5.126;2023-09-19T10:34:49;13.48;;;2.20;;
20511;SDS011;10414;52.074;5.126;2023-09-19T10:37:22;11.75;;;1.80;;
20511;SDS011;10414;52.074;5.126;2023-09-19T10:40:05;6.70;;;1.60;;
20511;SDS011;10414;52.074;5.126;2023-09-19T10:42:37;11.40;;;2.40;;
20511;SDS011;10414;52.074;5.126;2023-09-19T10:45:08;10.38;;;1.90;;
20511;SDS011;10414;52.074;5.126;2023-09-19T10:47:40;8.27;;;1.85;;
20511;SDS011;10414;52.074;5.126;2023-09-19T10:50:09;14.38;;;2.30;;
20511;SDS011;10414;52.074;5.126;2023-09-19T10:52:47;9.23;;;1.52;;
20511;SDS011;10414;52.074;5.126;2023-09-19T10:55:23;7.95;;;1.60;;
20511;SDS011;10414;52.074;5.126;2023-09-19T10:57:55;7.20;;;1.70;;
20511;SDS011;10414;52.074;5.126;2023-09-19T11:00:49;9.48;;;1.63;;
20511;SDS011;10414;52.074;5.126;2023-09-19T11:03:20;8.38;;;1.60;;
20511;SDS011;10414;52.074;5.126;2023-09-19T11:06:09;9.82;;;1.80;;
20511;SDS011;10414;52.074;5.126;2023-09-19T11:08:54;10.43;;;1.60;;
20511;SDS011;10414;52.074;5.126;2023-09-19T11:11:44;7.13;;;2.00;;
20511;SDS011;10414;52.074;5.126;2023-09-19T11:20:23;7.90;;;1.30;;
20511;SDS011;10414;52.074;5.126;2023-09-19T11:25:54;9.50;;;1.70;;
20511;SDS011;10414;52.074;5.126;2023-09-19T11:28:27;7.00;;;1.48;;
20511;SDS011;10414;52.074;5.126;2023-09-19T11:40:45;5.50;;;1.40;;
20511;SDS011;10414;52.074;5.126;2023-09-19T11:43:29;9.40;;;1.73;;
20511;SDS011;10414;52.074;5.126;2023-09-19T11:46:05;7.60;;;1.30;;
20511;SDS011;10414;52.074;5.126;2023-09-19T11:48:34;6.65;;;1.13;;
20511;SDS011;10414;52.074;5.126;2023-09-19T11:51:15;7.80;;;1.20;;
20511;SDS011;10414;52.074;5.126;2023-09-19T11:53:55;6.15;;;1.40;;
20511;SDS011;10414;52.074;5.126;2023-09-19T11:56:26;7.35;;;2.22;;
20511;SDS011;10414;52.074;5.126;2023-09-19T11:58:57;10.77;;;1.50;;
20511;SDS011;10414;52.074;5.126;2023-09-19T12:01:25;8.30;;;1.60;;
20511;SDS011;10414;52.074;5.126;2023-09-19T12:04:00;5.53;;;1.23;;
20511;SDS011;10414;52.074;5.126;2023-09-19T12:06:30;5.28;;;1.30;;
20511;SDS011;10414;52.074;5.126;2023-09-19T12:08:58;9.48;;;1.35;;
20511;SDS011;10414;52.074;5.126;2023-09-19T12:11:33;5.20;;;1.15;;
20511;SDS011;10414;52.074;5.126;2023-09-19T12:14:11;4.67;;;1.13;;
20511;SDS011;10414;52.074;5.126;2023-09-19T12:16:57;8.40;;;1.50;;
20511;SDS011;10414;52.074;5.126;2023-09-19T12:19:26;8.82;;;1.65;;
20511;SDS011;10414;52.074;5.126;2023-09-19T12:21:57;8.05;;;1.30;;
20511;SDS011;10414;52.074;5.126;2023-09-19T12:24:31;7.43;;;1.33;;
20511;SDS011;10414;52.074;5.126;2023-09-19T12:27:05;9.70;;;1.38;;
20511;SDS011;10414;52.074;5.126;2023-09-19T12:29:43;7.35;;;1.48;;
20511;SDS011;10414;52.074;5.126;2023-09-19T12:32:14;6.30;;;1.20;;
20511;SDS011;10414;52.074;5.126;2023-09-19T12:34:52;8.05;;;1.38;;
20511;SDS011;10414;52.074;5.126;2023-09-19T12:37:20;5.45;;;1.20;;
20511;SDS011;10414;52.074;5.126;2023-09-19T12:40:02;9.77;;;2.00;;
20511;SDS011;10414;52.074;5.126;2023-09-19T12:42:46;6.05;;;1.00;;
20511;SDS011;10414;52.074;5.126;2023-09-19T12:45:15;4.75;;;1.13;;
20511;SDS011;10414;52.074;5.126;2023-09-19T12:53:47;6.63;;;1.52;;
20511;SDS011;10414;52.074;5.126;2023-09-19T12:56:39;7.38;;;1.15;;
20511;SDS011;10414;52.074;5.126;2023-09-19T12:59:12;5.28;;;1.23;;
20511;SDS011;10414;52.074;5.126;2023-09-19T13:01:40;7.90;;;1.20;;
20511;SDS011;10414;52.074;5.126;2023-09-19T13:04:13;6.57;;;1.38;;
20511;SDS011;10414;52.074;5.126;2023-09-19T13:06:43;5.70;;;1.20;;
20511;SDS011;10414;52.074;5.126;2023-09-19T13:11:46;6.20;;;1.13;;
20511;SDS011;10414;52.074;5.126;2023-09-19T13:14:26;8.95;;;1.65;;
20511;SDS011;10414;52.074;5.126;2023-09-19T13:16:57;9.65;;;1.50;;
20511;SDS011;10414;52.074;5.126;2023-09-19T13:19:38;4.93;;;1.55;;
20511;SDS011;10414;52.074;5.126;2023-09-19T13:25:11;5.88;;;1.23;;
20511;SDS011;10414;52.074;5.126;2023-09-19T13:27:43;5.97;;;1.27;;
20511;SDS011;10414;52.074;5.126;2023-09-19T13:30:18;7.63;;;1.40;;
20511;SDS011;10414;52.074;5.126;2023-09-19T13:32:50;9.05;;;1.58;;
20511;SDS011;10414;52.074;5.126;2023-09-19T13:35:18;6.75;;;1.40;;
20511;SDS011;10414;52.074;5.126;2023-09-19T13:38:01;6.43;;;1.40;;
20511;SDS011;10414;52.074;5.126;2023-09-19T13:40:29;7.78;;;1.42;;
20511;SDS011;10414;52.074;5.126;2023-09-19T13:43:02;5.70;;;1.25;;
20511;SDS011;10414;52.074;5.126;2023-09-19T13:45:33;5.60;;;1.35;;
20511;SDS011;10414;52.074;5.126;2023-09-19T13:48:01;5.60;;;1.38;;
20511;SDS011;10414;52.074;5.126;2023-09-19T13:50:28;7.47;;;1.40;;
20511;SDS011;10414;52.074;5.126;2023-09-19T13:52:57;4.38;;;1.27;;
20511;SDS011;10414;52.074;5.126;2023-09-19T13:55:25;6.72;;;1.40;;
20511;SDS011;10414;52.074;5.126;2023-09-19T13:57:54;6.78;;;1.20;;
20511;SDS011;10414;52.074;5.126;2023-09-19T14:00:24;6.45;;;1.63;;
20511;SDS011;10414;52.074;5.126;2023-09-19T14:02:56;5.63;;;1.10;;
20511;SDS011;10414;52.074;5.126;2023-09-19T14:05:26;6.75;;;1.77;;
20511;SDS011;10414;52.074;5.126;2023-09-19T14:07:56;6.45;;;1.42;;
20511;SDS011;10414;52.074;5.126;2023-09-19T14:10:24;5.28;;;1.25;;
20511;SDS011;10414;52.074;5.126;2023-09-19T14:12:58;5.90;;;1.60;;
20511;SDS011;10414;52.074;5.126;2023-09-19T14:15:25;4.30;;;1.45;;
20511;SDS011;10414;52.074;5.126;2023-09-19T14:17:57;6.22;;;1.25;;
20511;SDS011;10414;52.074;5.126;2023-09-19T14:22:55;6.78;;;1.48;;
20511;SDS011;10414;52.074;5.126;2023-09-19T14:27:50;6.88;;;1.80;;
20511;SDS011;10414;52.074;5.126;2023-09-19T14:30:17;5.47;;;1.63;;
20511;SDS011;10414;52.074;5.126;2023-09-19T14:32:44;7.63;;;2.03;;
20511;SDS011;10414;52.074;5.126;2023-09-19T14:35:13;6.38;;;1.58;;
20511;SDS011;10414;52.074;5.126;2023-09-19T14:37:40;7.80;;;1.50;;
20511;SDS011;10414;52.074;5.126;2023-09-19T14:40:10;6.40;;;1.58;;
20511;SDS011;10414;52.074;5.126;2023-09-19T14:42:43;8.20;;;1.85;;
20511;SDS011;10414;52.074;5.126;2023-09-19T14:45:19;7.70;;;1.75;;
20511;SDS011;10414;52.074;5.126;2023-09-19T14:47:50;7.50;;;1.75;;
20511;SDS011;10414;52.074;5.126;2023-09-19T14:50:21;9.13;;;1.52;;
20511;SDS011;10414;52.074;5.126;2023-09-19T14:52:48;11.27;;;1.90;;
20511;SDS011;10414;52.074;5.126;2023-09-19T14:57:48;8.48;;;1.63;;
20511;SDS011;10414;52.074;5.126;2023-09-19T15:00:18;10.30;;;1.80;;
20511;SDS011;10414;52.074;5.126;2023-09-19T15:02:54;9.80;;;1.73;;
20511;SDS011;10414;52.074;5.126;2023-09-19T15:05:23;5.97;;;1.60;;
20511;SDS011;10414;52.074;5.126;2023-09-19T15:08:20;8.27;;;1.67;;
20511;SDS011;10414;52.074;5.126;2023-09-19T15:10:50;8.65;;;1.70;;
20511;SDS011;10414;52.074;5.126;2023-09-19T15:13:21;11.93;;;1.88;;
20511;SDS011;10414;52.074;5.126;2023-09-19T15:15:48;8.60;;;1.70;;
20511;SDS011;10414;52.074;5.126;2023-09-19T15:18:19;9.13;;;1.67;;
20511;SDS011;10414;52.074;5.126;2023-09-19T15:20:48;8.65;;;2.10;;
20511;SDS011;10414;52.074;5.126;2023-09-19T15:23:19;5.07;;;1.67;;
20511;SDS011;10414;52.074;5.126;2023-09-19T15:25:54;8.00;;;1.75;;
20511;SDS011;10414;52.074;5.126;2023-09-19T15:28:24;8.38;;;1.85;;
20511;SDS011;10414;52.074;5.126;2023-09-19T15:31:04;7.35;;;1.90;;
20511;SDS011;10414;52.074;5.126;2023-09-19T15:33:32;6.95;;;2.00;;
20511;SDS011;10414;52.074;5.126;2023-09-19T15:36:02;10.00;;;2.15;;
20511;SDS011;10414;52.074;5.126;2023-09-19T15:38:55;6.53;;;1.50;;
20511;SDS011;10414;52.074;5.126;2023-09-19T15:41:29;6.70;;;1.60;;
20511;SDS011;10414;52.074;5.126;2023-09-19T15:44:00;9.00;;;1.70;;
20511;SDS011;10414;52.074;5.126;2023-09-19T15:46:32;10.15;;;1.90;;
20511;SDS011;10414;52.074;5.126;2023-09-19T15:49:02;7.28;;;1.77;;
20511;SDS011;10414;52.074;5.126;2023-09-19T15:51:39;8.93;;;1.70;;
20511;SDS011;10414;52.074;5.126;2023-09-19T15:56:43;9.43;;;1.90;;
20511;SDS011;10414;52.074;5.126;2023-09-19T15:59:14;9.82;;;2.10;;
20511;SDS011;10414;52.074;5.126;2023-09-19T16:01:50;9.07;;;2.20;;
20511;SDS011;10414;52.074;5.126;2023-09-19T16:04:20;7.38;;;1.50;;
20511;SDS011;10414;52.074;5.126;2023-09-19T16:06:57;13.45;;;1.73;;